createdAt,value
2023-02-24T00:00:25.558Z,36.17
2023-02-24T00:03:48.865Z,37.15
2023-02-24T00:06:19.407Z,36.30
2023-02-24T00:09:00.533Z,36.78
2023-02-24T00:11:29.652Z,36.88
2023-02-24T00:13:58.669Z,35.83
2023-02-24T00:16:27.526Z,36.53
2023-02-24T00:18:56.714Z,36.03
2023-02-24T00:21:27.287Z,37.08
2023-02-24T00:23:56.930Z,36.83
2023-02-24T00:26:26.605Z,37.50
2023-02-24T00:28:55.403Z,39.70
2023-02-24T00:31:25.585Z,37.60
2023-02-24T00:33:57.382Z,37.65
2023-02-24T00:36:29.312Z,36.83
2023-02-24T00:38:59.658Z,39.00
2023-02-24T00:44:06.203Z,36.58
2023-02-24T00:46:37.240Z,36.92
2023-02-24T00:49:12.861Z,37.33
2023-02-24T00:51:44.113Z,31.02
2023-02-24T00:54:15.134Z,37.53
2023-02-24T00:56:45.393Z,38.13
2023-02-24T00:59:18.756Z,33.42
2023-02-24T01:01:50.847Z,38.45
2023-02-24T01:04:22.377Z,36.30
2023-02-24T01:07:00.189Z,37.97
2023-02-24T01:09:31.854Z,38.22
2023-02-24T01:12:17.789Z,37.42
2023-02-24T01:14:48.675Z,35.58
2023-02-24T01:17:20.408Z,37.85
2023-02-24T01:19:50.444Z,34.03
2023-02-24T01:24:50.846Z,37.40
2023-02-24T01:27:20.430Z,36.28
2023-02-24T01:29:50.265Z,36.42
2023-02-24T01:32:21.719Z,28.25
2023-02-24T01:34:53.716Z,36.13
2023-02-24T01:37:24.330Z,35.75
2023-02-24T01:39:53.494Z,36.78
2023-02-24T01:42:24.215Z,38.40
2023-02-24T01:45:15.252Z,38.45
2023-02-24T01:47:47.539Z,42.22
2023-02-24T01:50:18.011Z,45.20
2023-02-24T01:52:49.153Z,43.58
2023-02-24T01:55:22.897Z,39.83
2023-02-24T01:57:53.635Z,40.20
2023-02-24T02:00:45.676Z,37.13
2023-02-24T02:03:24.280Z,39.85
2023-02-24T02:05:54.775Z,41.83
2023-02-24T02:08:27.609Z,41.50
2023-02-24T02:10:59.068Z,40.92
2023-02-24T02:13:30.220Z,39.88
2023-02-24T02:16:07.086Z,38.30
2023-02-24T02:18:47.541Z,31.00
2023-02-24T02:21:49.523Z,36.72
2023-02-24T02:24:31.815Z,34.05
2023-02-24T02:27:29.563Z,36.33
2023-02-24T02:30:25.677Z,35.90
2023-02-24T02:33:38.615Z,37.58
2023-02-24T02:36:15.456Z,39.03
2023-02-24T02:38:52.232Z,37.92
2023-02-24T02:41:25.814Z,39.67
2023-02-24T02:44:02.860Z,36.72
2023-02-24T02:46:36.372Z,34.28
2023-02-24T02:49:11.621Z,39.60
2023-02-24T02:51:44.451Z,36.53
2023-02-24T02:54:18.413Z,39.40
2023-02-24T02:56:50.726Z,38.67
2023-02-24T02:59:23.648Z,40.72
2023-02-24T03:01:55.738Z,39.88
2023-02-24T03:04:27.129Z,41.60
2023-02-24T03:07:00.963Z,42.53
2023-02-24T03:09:33.128Z,43.05
2023-02-24T03:12:08.416Z,32.53
2023-02-24T03:14:40.756Z,43.78
2023-02-24T03:17:15.051Z,40.67
2023-02-24T03:19:43.944Z,42.53
2023-02-24T03:22:18.309Z,46.35
2023-02-24T03:24:47.868Z,46.08
2023-02-24T03:27:27.716Z,45.78
2023-02-24T03:30:00.292Z,45.65
2023-02-24T03:32:34.395Z,46.20
2023-02-24T03:35:07.211Z,47.08
2023-02-24T03:37:38.846Z,48.15
2023-02-24T03:40:11.819Z,48.85
2023-02-24T03:42:43.473Z,46.28
2023-02-24T03:45:12.937Z,50.47
2023-02-24T03:47:42.715Z,50.10
2023-02-24T03:50:14.448Z,42.63
2023-02-24T03:52:49.368Z,50.25
2023-02-24T03:55:26.151Z,51.08
2023-02-24T03:58:05.606Z,34.70
2023-02-24T04:00:46.994Z,52.25
2023-02-24T04:03:25.762Z,47.10
2023-02-24T04:06:09.556Z,53.47
2023-02-24T04:08:45.244Z,58.72
2023-02-24T04:11:21.164Z,53.13
2023-02-24T04:13:53.076Z,50.08
2023-02-24T04:16:29.245Z,55.67
2023-02-24T04:19:02.985Z,58.75
2023-02-24T04:21:34.389Z,52.38
2023-02-24T04:26:40.518Z,60.35
2023-02-24T04:29:17.661Z,45.33
2023-02-24T04:31:48.206Z,52.63
2023-02-24T04:34:20.319Z,65.57
2023-02-24T04:36:51.068Z,64.30
2023-02-24T04:39:23.566Z,66.55
2023-02-24T04:41:57.840Z,55.33
2023-02-24T04:44:28.298Z,65.38
2023-02-24T04:46:57.399Z,66.80
2023-02-24T04:49:27.256Z,67.07
2023-02-24T04:51:57.310Z,65.72
2023-02-24T04:54:29.809Z,64.40
2023-02-24T04:56:59.630Z,66.95
2023-02-24T04:59:33.576Z,64.45
2023-02-24T05:02:02.698Z,62.17
2023-02-24T05:04:34.527Z,67.97
2023-02-24T05:07:03.759Z,64.03
2023-02-24T05:09:34.453Z,67.57
2023-02-24T05:12:06.378Z,69.68
2023-02-24T05:14:35.970Z,70.68
2023-02-24T05:17:05.270Z,66.60
2023-02-24T05:19:51.393Z,68.05
2023-02-24T05:22:23.016Z,67.53
2023-02-24T05:24:54.120Z,65.05
2023-02-24T05:27:23.418Z,69.72
2023-02-24T05:29:55.156Z,71.13
2023-02-24T05:32:25.551Z,63.88
2023-02-24T05:34:54.489Z,67.75
2023-02-24T05:37:23.583Z,68.30
2023-02-24T05:39:56.828Z,68.28
2023-02-24T05:42:26.420Z,67.20
2023-02-24T05:44:55.814Z,68.55
2023-02-24T05:47:27.138Z,66.47
2023-02-24T05:49:59.308Z,68.18
2023-02-24T05:52:28.547Z,66.43
2023-02-24T05:55:02.819Z,71.57
2023-02-24T05:57:37.992Z,69.45
2023-02-24T06:00:16.708Z,68.32
2023-02-24T06:02:49.789Z,65.95
2023-02-24T06:05:28.987Z,61.20
2023-02-24T06:08:06.638Z,64.28
2023-02-24T06:10:37.340Z,61.40
2023-02-24T06:13:06.978Z,57.95
2023-02-24T06:15:37.596Z,60.10
2023-02-24T06:18:07.449Z,62.70
2023-02-24T06:20:38.772Z,59.47
2023-02-24T06:23:08.923Z,61.17
2023-02-24T06:25:39.904Z,60.63
2023-02-24T06:28:09.982Z,58.60
2023-02-24T06:30:39.425Z,59.17
2023-02-24T06:33:09.088Z,59.70
2023-02-24T06:35:39.787Z,53.60
2023-02-24T06:38:08.917Z,58.03
2023-02-24T06:40:39.250Z,58.67
2023-02-24T06:43:12.332Z,57.22
2023-02-24T06:45:41.576Z,56.75
2023-02-24T06:48:12.051Z,55.42
2023-02-24T06:50:42.234Z,55.03
2023-02-24T06:53:17.123Z,52.28
2023-02-24T06:55:49.025Z,52.90
2023-02-24T06:58:20.975Z,51.35
2023-02-24T07:00:57.020Z,52.33
2023-02-24T07:03:40.477Z,53.10
2023-02-24T07:06:20.588Z,50.78
2023-02-24T07:08:49.878Z,50.30
2023-02-24T07:11:20.852Z,53.58
2023-02-24T07:13:51.055Z,52.65
2023-02-24T07:16:25.223Z,51.83
2023-02-24T07:18:56.842Z,49.83
2023-02-24T07:21:27.681Z,52.10
2023-02-24T07:23:59.084Z,50.35
2023-02-24T07:26:30.708Z,49.50
2023-02-24T07:28:59.902Z,49.20
2023-02-24T07:31:29.341Z,50.50
2023-02-24T07:34:00.702Z,52.83
2023-02-24T07:36:31.132Z,53.53
2023-02-24T07:39:01.781Z,51.78
2023-02-24T07:41:32.354Z,54.80
2023-02-24T07:44:03.471Z,54.75
2023-02-24T07:46:33.671Z,55.30
2023-02-24T07:49:04.337Z,54.60
2023-02-24T07:51:33.595Z,53.53
2023-02-24T07:54:05.322Z,50.83
2023-02-24T07:56:46.130Z,49.75
2023-02-24T07:59:19.006Z,50.85
2023-02-24T08:01:50.973Z,49.83
2023-02-24T08:04:23.515Z,48.50
2023-02-24T08:06:57.132Z,45.97
2023-02-24T08:09:44.999Z,46.90
2023-02-24T08:12:18.201Z,45.15
2023-02-24T08:14:51.256Z,44.80
2023-02-24T08:17:21.565Z,44.65
2023-02-24T08:19:57.937Z,41.72
2023-02-24T08:22:28.932Z,43.90
2023-02-24T08:25:00.841Z,43.58
2023-02-24T08:27:31.829Z,45.35
2023-02-24T08:30:03.056Z,46.90
2023-02-24T08:32:37.222Z,41.78
2023-02-24T08:35:14.674Z,40.85
2023-02-24T08:37:47.272Z,42.17
2023-02-24T08:40:38.141Z,41.90
2023-02-24T08:43:17.393Z,39.78
2023-02-24T08:45:51.018Z,42.55
2023-02-24T08:48:32.395Z,39.00
2023-02-24T08:51:04.762Z,39.63
2023-02-24T08:53:34.058Z,36.78
2023-02-24T08:56:09.784Z,41.42
2023-02-24T08:58:47.530Z,39.45
2023-02-24T09:01:24.596Z,39.85
2023-02-24T09:03:56.806Z,39.53
2023-02-24T09:06:35.242Z,37.13
2023-02-24T09:09:21.268Z,33.90
2023-02-24T09:11:56.527Z,37.50
2023-02-24T09:14:29.454Z,36.00
2023-02-24T09:17:11.273Z,35.80
2023-02-24T09:20:02.512Z,39.25
2023-02-24T09:22:33.229Z,37.80
2023-02-24T09:25:21.897Z,37.28
2023-02-24T09:27:57.241Z,37.30
2023-02-24T09:30:38.671Z,40.25
2023-02-24T09:33:18.128Z,39.88
2023-02-24T09:35:48.826Z,41.15
2023-02-24T09:38:19.264Z,38.17
2023-02-24T09:40:52.880Z,38.17
2023-02-24T09:43:25.665Z,40.63
2023-02-24T09:46:02.313Z,40.75
2023-02-24T09:48:44.132Z,42.45
2023-02-24T09:51:22.115Z,40.83
2023-02-24T09:53:54.566Z,41.58
2023-02-24T09:56:30.441Z,40.13
2023-02-24T09:59:10.422Z,34.55
2023-02-24T10:01:49.943Z,34.58
2023-02-24T10:04:53.948Z,33.30
2023-02-24T10:07:27.870Z,34.10
2023-02-24T10:10:19.611Z,31.92
2023-02-24T10:12:53.007Z,30.98
2023-02-24T10:15:57.053Z,31.05
2023-02-24T10:18:34.208Z,29.60
2023-02-24T10:21:15.722Z,31.98
2023-02-24T10:23:56.894Z,25.75
2023-02-24T10:26:33.065Z,23.10
2023-02-24T10:29:09.249Z,21.35
2023-02-24T10:31:46.418Z,17.80
2023-02-24T10:34:26.536Z,18.35
2023-02-24T10:36:57.613Z,18.23
2023-02-24T10:39:27.330Z,18.60
2023-02-24T10:42:15.772Z,17.42
2023-02-24T10:45:03.383Z,17.85
2023-02-24T10:47:33.163Z,15.95
2023-02-24T10:50:07.548Z,17.03
2023-02-24T10:52:50.905Z,17.70
2023-02-24T10:55:39.244Z,17.33
2023-02-24T10:58:16.026Z,17.92
2023-02-24T11:01:00.773Z,17.50
2023-02-24T11:03:42.320Z,17.85
2023-02-24T11:06:42.437Z,16.17
2023-02-24T11:09:32.375Z,17.65
2023-02-24T11:12:23.957Z,20.95
2023-02-24T11:15:12.273Z,15.38
2023-02-24T11:17:48.013Z,16.65
2023-02-24T11:20:23.695Z,17.08
2023-02-24T11:22:55.994Z,17.05
2023-02-24T11:25:27.572Z,17.85
2023-02-24T11:27:57.255Z,17.55
2023-02-24T11:30:49.211Z,17.05
2023-02-24T11:33:24.021Z,17.60
2023-02-24T11:36:00.435Z,15.88
2023-02-24T11:38:39.969Z,18.10
2023-02-24T11:41:19.994Z,18.13
2023-02-24T11:43:57.981Z,18.83
2023-02-24T11:46:39.515Z,18.55
2023-02-24T11:49:22.329Z,20.83
2023-02-24T11:51:51.952Z,18.38
2023-02-24T11:54:23.644Z,18.75
2023-02-24T11:56:55.881Z,18.65
2023-02-24T11:59:33.691Z,18.25
2023-02-24T12:02:08.154Z,17.88
2023-02-24T12:04:39.988Z,16.08
2023-02-24T12:07:13.100Z,18.10
2023-02-24T12:09:46.893Z,15.95
2023-02-24T12:12:20.211Z,16.23
2023-02-24T12:14:53.669Z,15.93
2023-02-24T12:17:27.464Z,16.10
2023-02-24T12:20:06.046Z,15.13
2023-02-24T12:22:46.119Z,15.77
2023-02-24T12:25:19.177Z,17.15
2023-02-24T12:27:57.204Z,17.67
2023-02-24T12:30:57.823Z,15.90
2023-02-24T12:36:05.146Z,15.32
2023-02-24T12:38:44.840Z,14.32
2023-02-24T12:41:37.272Z,13.98
2023-02-24T12:44:16.491Z,12.90
2023-02-24T12:46:47.306Z,13.15
2023-02-24T12:49:57.382Z,12.32
2023-02-24T12:52:32.641Z,11.90
2023-02-24T12:55:06.807Z,13.02
2023-02-24T12:57:44.054Z,13.05
2023-02-24T13:00:16.357Z,13.32
2023-02-24T13:02:52.151Z,14.60
2023-02-24T13:05:24.394Z,14.40
2023-02-24T13:08:08.789Z,14.90
2023-02-24T13:10:44.797Z,13.65
2023-02-24T13:13:23.113Z,12.75
2023-02-24T13:15:54.335Z,12.40
2023-02-24T13:18:28.424Z,12.75
2023-02-24T13:21:09.289Z,12.75
2023-02-24T13:23:42.982Z,13.18
2023-02-24T13:26:12.019Z,13.25
2023-02-24T13:28:42.142Z,13.50
2023-02-24T13:31:13.142Z,13.73
2023-02-24T13:33:43.274Z,14.68
2023-02-24T13:36:17.596Z,13.88
2023-02-24T13:38:48.190Z,14.18
2023-02-24T13:44:00.745Z,14.65
2023-02-24T13:46:32.619Z,15.13
2023-02-24T13:49:06.572Z,15.38
2023-02-24T13:51:59.278Z,14.35
2023-02-24T13:55:09.024Z,15.43
2023-02-24T13:57:52.568Z,16.23
2023-02-24T14:00:32.637Z,14.85
2023-02-24T14:03:02.031Z,14.75
2023-02-24T14:05:34.483Z,16.17
2023-02-24T14:08:04.341Z,13.80
2023-02-24T14:10:34.822Z,14.90
2023-02-24T14:13:07.025Z,14.45
2023-02-24T14:15:37.748Z,15.88
2023-02-24T14:18:07.437Z,16.58
2023-02-24T14:20:38.055Z,16.33
2023-02-24T14:23:23.529Z,16.67
2023-02-24T14:25:56.384Z,15.50
2023-02-24T14:28:27.944Z,15.65
2023-02-24T14:31:00.340Z,15.35
2023-02-24T14:33:32.398Z,15.95
2023-02-24T14:36:02.017Z,16.08
2023-02-24T14:38:34.638Z,14.90
2023-02-24T14:41:07.990Z,15.15
2023-02-24T14:43:43.048Z,16.30
2023-02-24T14:46:13.807Z,17.13
2023-02-24T14:48:43.041Z,17.70
2023-02-24T14:51:15.615Z,17.75
2023-02-24T14:53:47.805Z,17.48
2023-02-24T14:56:17.340Z,17.48
2023-02-24T14:58:48.792Z,16.15
2023-02-24T15:01:24.366Z,12.63
2023-02-24T15:06:49.236Z,17.55
2023-02-24T15:09:21.648Z,17.73
2023-02-24T15:11:53.267Z,17.40
2023-02-24T15:14:24.840Z,17.83
2023-02-24T15:16:56.063Z,18.67
2023-02-24T15:19:28.542Z,19.52
2023-02-24T15:21:57.663Z,18.33
2023-02-24T15:24:29.022Z,17.50
2023-02-24T15:26:59.958Z,15.05
2023-02-24T15:29:30.593Z,15.68
2023-02-24T15:32:02.081Z,18.08
2023-02-24T15:34:33.099Z,16.67
2023-02-24T15:37:04.642Z,18.52
2023-02-24T15:39:37.069Z,18.55
2023-02-24T15:42:10.585Z,15.77
2023-02-24T15:44:39.891Z,17.63
2023-02-24T15:47:23.730Z,17.65
2023-02-24T15:49:53.622Z,17.08
2023-02-24T15:52:25.060Z,18.03
2023-02-24T15:54:54.680Z,19.33
2023-02-24T15:57:25.300Z,19.50
2023-02-24T15:59:54.720Z,18.35
2023-02-24T16:02:26.106Z,19.48
2023-02-24T16:04:55.647Z,17.33
2023-02-24T16:07:28.818Z,15.85
2023-02-24T16:09:59.189Z,13.68
2023-02-24T16:12:32.189Z,13.77
2023-02-24T16:15:05.527Z,14.88
2023-02-24T16:17:39.135Z,12.38
2023-02-24T16:20:12.301Z,12.35
2023-02-24T16:22:40.962Z,13.00
2023-02-24T16:25:12.101Z,12.98
2023-02-24T16:27:41.253Z,14.55
2023-02-24T16:30:17.153Z,13.48
2023-02-24T16:32:48.563Z,14.27
2023-02-24T16:35:18.412Z,14.98
2023-02-24T16:37:47.981Z,14.43
2023-02-24T16:40:23.259Z,15.73
2023-02-24T16:42:53.735Z,14.43
2023-02-24T16:45:23.408Z,12.55
2023-02-24T16:50:25.302Z,12.35
2023-02-24T16:52:54.057Z,12.77
2023-02-24T16:55:24.028Z,12.20
2023-02-24T16:57:53.240Z,12.73
2023-02-24T17:00:24.320Z,12.07
2023-02-24T17:02:55.363Z,12.60
2023-02-24T17:05:26.171Z,14.20
2023-02-24T17:07:58.956Z,14.48
2023-02-24T17:10:28.029Z,14.93
2023-02-24T17:12:57.046Z,14.45
2023-02-24T17:15:27.866Z,14.82
2023-02-24T17:17:58.623Z,14.38
2023-02-24T17:20:29.002Z,15.48
2023-02-24T17:22:57.673Z,18.27
2023-02-24T17:25:28.352Z,16.00
2023-02-24T17:27:58.429Z,14.95
2023-02-24T17:30:30.789Z,15.60
2023-02-24T17:33:02.281Z,13.68
2023-02-24T17:35:31.579Z,13.23
2023-02-24T17:38:00.588Z,14.00
2023-02-24T17:40:29.313Z,14.40
2023-02-24T17:42:58.459Z,13.85
2023-02-24T17:45:27.721Z,13.43
2023-02-24T17:47:56.818Z,15.00
2023-02-24T17:50:27.326Z,15.38
2023-02-24T17:52:56.814Z,14.10
2023-02-24T17:55:25.991Z,13.10
2023-02-24T17:57:57.089Z,14.20
2023-02-24T18:00:26.485Z,14.35
2023-02-24T18:02:55.999Z,13.10
2023-02-24T18:05:26.963Z,10.95
2023-02-24T18:07:55.841Z,12.98
2023-02-24T18:10:25.041Z,13.63
2023-02-24T18:12:55.331Z,14.80
2023-02-24T18:15:24.541Z,14.85
2023-02-24T18:17:53.674Z,15.40
2023-02-24T18:20:23.010Z,17.67
2023-02-24T18:22:53.160Z,17.73
2023-02-24T18:25:22.356Z,18.25
2023-02-24T18:27:51.423Z,19.55
2023-02-24T18:30:21.444Z,18.75
2023-02-24T18:32:52.011Z,18.50
2023-02-24T18:35:22.269Z,19.38
2023-02-24T18:37:56.644Z,18.95
2023-02-24T18:40:27.482Z,18.08
2023-02-24T18:42:57.003Z,18.33
2023-02-24T18:45:26.261Z,18.05
2023-02-24T18:47:55.652Z,18.48
2023-02-24T18:50:25.251Z,16.83
2023-02-24T18:52:55.383Z,16.83
2023-02-24T18:55:24.488Z,16.17
2023-02-24T18:57:54.123Z,16.92
2023-02-24T19:00:23.740Z,16.73
2023-02-24T19:02:52.894Z,16.33
2023-02-24T19:05:22.126Z,17.58
2023-02-24T19:07:50.822Z,19.02
2023-02-24T19:10:21.702Z,17.63
2023-02-24T19:12:52.118Z,18.42
2023-02-24T19:15:22.521Z,20.75
2023-02-24T19:17:51.569Z,20.95
2023-02-24T19:20:21.201Z,20.80
2023-02-24T19:22:51.681Z,24.85
2023-02-24T19:25:22.445Z,25.08
2023-02-24T19:27:51.577Z,29.52
2023-02-24T19:30:20.713Z,30.58
2023-02-24T19:32:49.993Z,28.58
2023-02-24T19:35:19.929Z,26.88
2023-02-24T19:37:49.548Z,27.37
2023-02-24T19:40:19.490Z,28.40
2023-02-24T19:42:51.889Z,31.98
2023-02-24T19:45:21.250Z,27.00
2023-02-24T19:47:50.792Z,25.92
2023-02-24T19:50:20.050Z,30.60
2023-02-24T19:52:48.733Z,27.10
2023-02-24T19:55:18.141Z,28.88
2023-02-24T19:57:47.399Z,31.23
2023-02-24T20:00:20.987Z,26.88
2023-02-24T20:02:50.362Z,30.25
2023-02-24T20:05:19.669Z,27.10
2023-02-24T20:07:48.436Z,29.05
2023-02-24T20:10:18.836Z,29.42
2023-02-24T20:12:48.084Z,33.17
2023-02-24T20:15:20.316Z,28.53
2023-02-24T20:17:49.889Z,31.77
2023-02-24T20:20:19.033Z,34.15
2023-02-24T20:22:47.874Z,35.70
2023-02-24T20:25:18.173Z,32.53
2023-02-24T20:30:16.785Z,27.48
2023-02-24T20:32:48.302Z,31.88
2023-02-24T20:35:17.688Z,35.80
2023-02-24T20:37:46.725Z,32.08
2023-02-24T20:40:16.152Z,33.50
2023-02-24T20:42:45.313Z,27.35
2023-02-24T20:45:14.520Z,25.00
2023-02-24T20:47:43.702Z,26.63
2023-02-24T20:50:14.908Z,34.75
2023-02-24T20:52:43.597Z,22.48
2023-02-24T20:55:12.956Z,29.48
2023-02-24T20:57:42.181Z,33.80
2023-02-24T21:00:12.545Z,23.77
2023-02-24T21:05:12.336Z,30.52
2023-02-24T21:07:42.633Z,28.88
2023-02-24T21:10:13.801Z,27.33
2023-02-24T21:12:43.166Z,25.55
2023-02-24T21:15:14.751Z,27.63
2023-02-24T21:17:44.042Z,26.33
2023-02-24T21:22:44.564Z,26.35
2023-02-24T21:25:13.798Z,23.55
2023-02-24T21:27:43.042Z,24.65
2023-02-24T21:30:13.280Z,23.95
2023-02-24T21:32:43.137Z,25.25
2023-02-24T21:35:12.386Z,23.77
2023-02-24T21:37:41.450Z,22.20
2023-02-24T21:40:14.317Z,24.40
2023-02-24T21:42:44.617Z,24.63
2023-02-24T21:47:43.728Z,25.25
2023-02-24T21:50:16.069Z,26.38
2023-02-24T21:52:47.321Z,24.40
2023-02-24T21:55:19.301Z,26.77
2023-02-24T21:57:48.483Z,23.52
2023-02-24T22:00:21.224Z,25.98
2023-02-24T22:02:51.592Z,26.23
2023-02-24T22:05:20.818Z,24.90
2023-02-24T22:07:50.326Z,26.52
2023-02-24T22:10:23.036Z,23.13
2023-02-24T22:12:52.081Z,22.90
2023-02-24T22:15:21.318Z,27.05
2023-02-24T22:17:50.418Z,27.45
2023-02-24T22:20:19.654Z,29.77
2023-02-24T22:22:50.913Z,29.33
2023-02-24T22:25:21.561Z,31.42
2023-02-24T22:27:52.196Z,28.02
2023-02-24T22:30:21.453Z,34.67
2023-02-24T22:32:51.036Z,31.70
2023-02-24T22:35:20.255Z,16.35
2023-02-24T22:37:48.956Z,30.55
2023-02-24T22:40:20.686Z,31.77
2023-02-24T22:42:51.292Z,20.88
2023-02-24T22:45:20.374Z,28.30
2023-02-24T22:47:49.606Z,23.05
2023-02-24T22:50:18.945Z,17.42
2023-02-24T22:52:49.113Z,20.23
2023-02-24T22:55:19.779Z,25.95
2023-02-24T22:57:50.325Z,24.40
2023-02-24T23:00:23.317Z,21.00
2023-02-24T23:02:52.436Z,23.67
2023-02-24T23:05:21.655Z,23.13
2023-02-24T23:07:50.644Z,23.52
2023-02-24T23:10:19.874Z,23.27
2023-02-24T23:12:50.411Z,23.75
2023-02-24T23:15:19.494Z,23.73
2023-02-24T23:17:49.035Z,22.92
2023-02-24T23:20:18.778Z,24.70
2023-02-24T23:22:50.567Z,16.45
2023-02-24T23:25:23.193Z,25.77
2023-02-24T23:27:54.911Z,24.88
2023-02-24T23:30:24.775Z,23.08
2023-02-24T23:32:53.856Z,24.55
2023-02-24T23:35:23.120Z,24.55
2023-02-24T23:37:51.822Z,21.42
2023-02-24T23:40:26.107Z,20.23
2023-02-24T23:42:56.930Z,20.02
2023-02-24T23:45:26.169Z,20.88
2023-02-24T23:47:55.228Z,20.20
2023-02-24T23:50:24.352Z,18.27
2023-02-24T23:52:53.999Z,17.20
2023-02-24T23:55:23.204Z,19.50
2023-02-24T23:57:53.233Z,18.00
